Time;durP1;ratioP1;P1;durP2;ratioP2;P2;SDS_P1;SDS_P2;PMS_P1;PMS_P2;Temp;Humidity;BMP_temperature;BMP_pressure;BME280_temperature;BME280_humidity;BME280_pressure;Samples;Min_cycle;Max_cycle;Signal;HPM_P1;HPM_P2
2022/09/28 00:01:57;;;;;;;1.45;0.85;;;11.30;99.90;;;;;;5029156;28;20033;-74
2022/09/28 00:04:23;;;;;;;1.52;0.80;;;11.20;99.90;;;;;;5033644;28;20041;-74
2022/09/28 00:06:48;;;;;;;4.20;1.05;;;11.10;99.90;;;;;;5030476;28;20042;-74
2022/09/28 00:09:15;;;;;;;1.63;0.82;;;11.00;99.90;;;;;;5036013;28;21399;-75
2022/09/28 00:11:42;;;;;;;3.05;1.10;;;11.10;99.90;;;;;;5029295;28;20069;-74
2022/09/28 00:14:09;;;;;;;1.45;0.80;;;11.20;99.90;;;;;;5030917;28;20084;-75
2022/09/28 00:16:39;;;;;;;2.47;0.90;;;11.20;99.90;;;;;;5031692;28;20068;-74
2022/09/28 00:19:05;;;;;;;2.55;1.58;;;11.10;99.90;;;;;;5032242;28;20485;-74
2022/09/28 00:21:33;;;;;;;6.07;1.15;;;11.10;99.90;;;;;;5029084;28;21252;-74
2022/09/28 00:24:15;;;;;;;1.83;1.02;;;10.90;99.90;;;;;;5034943;28;20029;-74
2022/09/28 00:26:47;;;;;;;1.98;0.90;;;10.60;99.90;;;;;;5030656;28;20036;-75
2022/09/28 00:29:18;;;;;;;1.95;0.88;;;10.60;99.90;;;;;;5028134;28;20033;-74
2022/09/28 00:31:44;;;;;;;2.15;1.00;;;10.80;99.90;;;;;;5030478;28;20395;-74
2022/09/28 00:34:10;;;;;;;1.98;1.00;;;10.80;99.90;;;;;;5030731;28;20041;-75
2022/09/28 00:36:36;;;;;;;2.42;1.08;;;10.60;99.90;;;;;;5033598;28;20446;-74
2022/09/28 00:39:04;;;;;;;2.22;1.15;;;10.60;99.90;;;;;;5030680;28;20161;-75
2022/09/28 00:41:30;;;;;;;2.67;1.13;;;10.50;99.90;;;;;;5031071;28;20033;-74
2022/09/28 00:44:21;;;;;;;2.50;1.10;;;10.50;99.90;;;;;;5029524;28;20458;-74
2022/09/28 00:46:49;;;;;;;2.58;1.10;;;10.60;99.90;;;;;;5030928;28;20056;-74
2022/09/28 00:49:17;;;;;;;2.22;1.00;;;10.50;99.90;;;;;;5028646;28;20068;-74
2022/09/28 00:51:46;;;;;;;2.45;0.95;;;10.60;99.90;;;;;;5033236;28;20466;-74
2022/09/28 00:54:14;;;;;;;2.25;1.00;;;10.60;99.90;;;;;;5035147;28;20037;-75
2022/09/28 00:56:42;;;;;;;3.08;1.27;;;10.60;99.90;;;;;;5037705;28;20037;-74
2022/09/28 00:59:08;;;;;;;2.60;0.98;;;10.70;99.90;;;;;;5029038;28;20044;-75
2022/09/28 01:01:34;;;;;;;2.05;1.10;;;10.60;99.90;;;;;;5030283;28;20034;-74
2022/09/28 01:04:01;;;;;;;2.00;0.88;;;10.60;99.90;;;;;;5029225;28;20460;-74
2022/09/28 01:06:32;;;;;;;2.72;1.40;;;10.60;99.90;;;;;;5030748;28;21319;-74
2022/09/28 01:09:02;;;;;;;2.75;1.25;;;10.80;99.90;;;;;;5029985;28;20472;-74
2022/09/28 01:11:31;;;;;;;2.17;1.10;;;10.80;99.90;;;;;;5029552;28;20029;-74
2022/09/28 01:13:58;;;;;;;2.55;1.17;;;10.90;99.90;;;;;;5031452;28;20063;-74
2022/09/28 01:16:27;;;;;;;2.20;1.00;;;11.00;99.90;;;;;;5030380;28;20029;-74
2022/09/28 01:19:04;;;;;;;2.03;0.88;;;11.00;99.90;;;;;;5033103;28;20025;-74
2022/09/28 01:21:46;;;;;;;1.55;0.88;;;11.10;99.90;;;;;;5028746;28;20041;-74
2022/09/28 01:24:33;;;;;;;2.28;0.70;;;11.20;99.90;;;;;;5034035;28;20400;-74
2022/09/28 01:27:05;;;;;;;1.85;0.90;;;11.30;99.90;;;;;;5029630;28;20119;-74
2022/09/28 01:29:34;;;;;;;1.42;0.90;;;11.00;99.90;;;;;;5032186;28;20131;-74
2022/09/28 01:32:06;;;;;;;3.30;1.38;;;10.90;99.90;;;;;;5029119;28;20026;-75
2022/09/28 01:34:38;;;;;;;1.90;1.00;;;10.90;99.90;;;;;;5030148;28;20423;-74
2022/09/28 01:37:08;;;;;;;2.72;1.20;;;10.70;99.90;;;;;;5031256;28;20037;-74
2022/09/28 01:39:38;;;;;;;2.25;1.00;;;10.70;99.90;;;;;;5033752;28;20103;-74
2022/09/28 01:42:10;;;;;;;1.45;0.75;;;10.70;99.90;;;;;;5030967;28;20179;-74
2022/09/28 01:44:41;;;;;;;3.17;1.00;;;10.70;99.90;;;;;;5031488;28;20514;-74
2022/09/28 01:47:10;;;;;;;1.55;0.57;;;10.90;99.90;;;;;;5029172;28;20033;-74
2022/09/28 01:50:04;;;;;;;1.92;0.75;;;11.00;99.90;;;;;;5031653;28;21048;-74
2022/09/28 01:52:39;;;;;;;2.42;1.05;;;11.10;99.90;;;;;;5032972;28;20041;-74
2022/09/28 01:55:25;;;;;;;;;;;11.10;99.90;;;;;;5028740;28;20080;-74
2022/09/28 01:57:56;;;;;;;2.10;0.85;;;11.00;99.90;;;;;;5028572;28;19913;-75
2022/09/28 02:00:24;;;;;;;2.30;1.00;;;11.00;99.90;;;;;;5031855;28;20040;-74
2022/09/28 02:02:57;;;;;;;1.60;0.68;;;11.00;99.90;;;;;;5028245;28;20060;-74
2022/09/28 02:05:37;;;;;;;1.70;0.85;;;11.00;99.90;;;;;;5027149;28;20091;-74
2022/09/28 02:08:18;;;;;;;3.47;1.05;;;11.10;99.90;;;;;;5027044;28;20029;-74
2022/09/28 02:11:10;;;;;;;1.83;0.93;;;11.00;99.90;;;;;;5028331;28;20025;-74
2022/09/28 02:13:51;;;;;;;2.15;0.93;;;11.00;99.90;;;;;;5038190;28;20048;-73
2022/09/28 02:16:28;;;;;;;1.95;0.88;;;10.80;99.90;;;;;;5044086;28;20064;-74
2022/09/28 02:18:54;;;;;;;4.00;0.90;;;10.80;99.90;;;;;;5034515;28;20025;-74
2022/09/28 02:21:50;;;;;;;4.30;0.95;;;10.80;99.90;;;;;;5029634;28;20101;-74
2022/09/28 02:24:36;;;;;;;2.90;1.08;;;10.70;99.90;;;;;;5032612;28;20045;-74
2022/09/28 02:27:08;;;;;;;1.90;0.88;;;10.80;99.90;;;;;;5030093;28;20060;-74
2022/09/28 02:29:33;;;;;;;3.65;1.00;;;10.70;99.90;;;;;;5028492;28;20021;-74
2022/09/28 02:31:59;;;;;;;3.08;1.20;;;10.80;99.90;;;;;;5026764;28;20029;-74
2022/09/28 02:34:25;;;;;;;1.23;0.73;;;10.80;99.90;;;;;;5027924;28;20124;-74
2022/09/28 02:36:51;;;;;;;1.58;1.00;;;10.90;99.90;;;;;;5028377;28;20033;-74
2022/09/28 02:39:17;;;;;;;1.10;0.70;;;10.90;99.90;;;;;;5030290;28;20422;-74
2022/09/28 02:41:46;;;;;;;2.67;0.90;;;10.90;99.90;;;;;;5027814;28;20502;-74
2022/09/28 02:44:14;;;;;;;2.45;1.20;;;10.90;99.90;;;;;;5028780;28;20094;-74
2022/09/28 02:47:06;;;;;;;5.68;1.48;;;10.90;99.90;;;;;;5034934;28;20021;-74
2022/09/28 02:49:36;;;;;;;2.83;1.27;;;10.80;99.90;;;;;;5030712;28;20073;-74
2022/09/28 02:52:07;;;;;;;2.00;0.90;;;10.70;99.90;;;;;;5027530;28;20032;-74
2022/09/28 02:55:27;;;;;;;2.53;1.25;;;10.60;99.90;;;;;;5027508;28;20051;-74
2022/09/28 02:58:19;;;;;;;3.80;1.00;;;10.40;99.90;;;;;;5042326;28;20153;-74
2022/09/28 03:01:03;;;;;;;2.35;1.08;;;10.40;99.90;;;;;;5027099;28;20031;-72
2022/09/28 03:03:54;;;;;;;3.45;1.10;;;10.50;99.90;;;;;;5025507;28;20187;-72
2022/09/28 03:06:45;;;;;;;3.83;1.20;;;10.50;99.90;;;;;;5024267;28;20032;-72
2022/09/28 03:09:18;;;;;;;2.22;0.90;;;10.40;99.90;;;;;;5021844;28;20056;-74
2022/09/28 03:12:12;;;;;;;2.67;0.90;;;10.50;99.90;;;;;;5021099;28;20071;-72
2022/09/28 03:14:37;;;;;;;3.38;0.95;;;10.40;99.90;;;;;;5032055;28;20045;-72
2022/09/28 03:17:04;;;;;;;4.63;0.80;;;10.50;99.90;;;;;;5025273;28;20641;-72
2022/09/28 03:19:33;;;;;;;1.50;0.90;;;10.40;99.90;;;;;;5020132;28;20044;-72
2022/09/28 03:22:00;;;;;;;4.13;0.82;;;10.40;99.90;;;;;;5023882;28;20038;-72
2022/09/28 03:24:26;;;;;;;2.53;0.93;;;10.40;99.90;;;;;;5022968;28;20041;-72
2022/09/28 03:26:52;;;;;;;1.98;0.93;;;10.50;99.90;;;;;;5022030;28;20079;-72
2022/09/28 03:29:19;;;;;;;1.70;0.82;;;10.60;99.90;;;;;;5026390;28;20077;-73
2022/09/28 03:31:47;;;;;;;2.15;1.02;;;10.70;99.90;;;;;;5022287;28;20391;-72
2022/09/28 03:34:13;;;;;;;1.48;0.85;;;10.70;99.90;;;;;;5022231;28;20131;-73
2022/09/28 03:36:38;;;;;;;4.95;1.33;;;10.50;99.90;;;;;;5024061;28;20112;-72
2022/09/28 03:39:04;;;;;;;3.42;1.13;;;10.50;99.90;;;;;;5022885;28;20044;-72
2022/09/28 03:41:29;;;;;;;4.00;1.20;;;10.50;99.90;;;;;;5029058;28;20037;-72
2022/09/28 03:43:55;;;;;;;2.95;1.48;;;10.50;99.90;;;;;;5028085;28;20030;-72
2022/09/28 03:46:21;;;;;;;2.28;0.98;;;10.60;99.90;;;;;;5027463;28;20037;-72
2022/09/28 03:48:47;;;;;;;2.30;1.20;;;10.70;99.90;;;;;;5026609;28;20464;-72
2022/09/28 03:51:13;;;;;;;2.85;1.15;;;10.70;99.90;;;;;;5028058;28;20032;-72
2022/09/28 03:53:38;;;;;;;2.72;0.80;;;10.70;99.90;;;;;;5033959;28;20123;-72
2022/09/28 03:56:14;;;;;;;2.03;1.10;;;10.90;99.90;;;;;;5026427;28;20041;-72
2022/09/28 03:58:40;;;;;;;2.75;1.30;;;10.80;99.90;;;;;;5026826;28;20033;-73
2022/09/28 04:01:11;;;;;;;1.75;0.90;;;10.70;99.90;;;;;;5030425;28;20025;-72
2022/09/28 04:03:36;;;;;;;1.98;0.80;;;10.80;99.90;;;;;;5027264;28;20132;-72
2022/09/28 04:06:02;;;;;;;2.17;1.05;;;10.70;99.90;;;;;;5025872;28;20369;-73
2022/09/28 04:08:28;;;;;;;2.88;1.27;;;10.50;99.90;;;;;;5027472;28;20104;-73
2022/09/28 04:10:58;;;;;;;2.92;1.45;;;10.50;99.90;;;;;;5028486;28;20044;-72
2022/09/28 04:13:25;;;;;;;1.38;0.85;;;10.60;99.90;;;;;;5028568;28;20055;-72
2022/09/28 04:15:56;;;;;;;2.90;1.20;;;10.60;99.90;;;;;;5026324;28;20091;-72
2022/09/28 04:18:22;;;;;;;2.58;1.08;;;10.60;99.90;;;;;;5025706;28;20153;-72
2022/09/28 04:21:07;;;;;;;3.13;1.25;;;10.70;99.90;;;;;;5028046;28;20025;-73
2022/09/28 04:23:35;;;;;;;2.25;1.00;;;10.70;99.90;;;;;;5025922;28;20072;-72
2022/09/28 04:26:02;;;;;;;3.58;1.15;;;10.80;99.90;;;;;;5036162;28;20571;-72
2022/09/28 04:31:18;;;;;;;1.88;0.82;;;10.70;99.90;;;;;;5025529;28;20099;-72
2022/09/28 04:33:43;;;;;;;2.15;1.08;;;10.70;99.90;;;;;;5024465;28;20119;-74
2022/09/28 04:36:09;;;;;;;2.83;1.15;;;10.60;99.90;;;;;;5022422;28;20743;-73
2022/09/28 04:38:36;;;;;;;4.18;1.23;;;10.70;99.90;;;;;;5022604;28;20037;-73
2022/09/28 04:41:02;;;;;;;2.63;0.80;;;10.80;99.90;;;;;;5026728;28;20609;-73
2022/09/28 04:43:28;;;;;;;1.80;0.90;;;10.90;99.90;;;;;;5025824;28;20017;-72
2022/09/28 04:46:01;;;;;;;2.45;1.02;;;10.80;99.90;;;;;;5033382;28;20048;-72
2022/09/28 04:48:28;;;;;;;1.88;1.00;;;10.70;99.90;;;;;;5027082;28;20036;-73
2022/09/28 04:50:58;;;;;;;2.17;0.90;;;10.70;99.90;;;;;;5031307;28;20033;-73
2022/09/28 04:53:26;;;;;;;2.28;1.00;;;10.70;99.90;;;;;;5027223;28;20049;-72
2022/09/28 04:56:00;;;;;;;2.70;0.98;;;10.80;99.90;;;;;;5024630;28;20138;-73
2022/09/28 04:58:26;;;;;;;2.22;0.85;;;10.80;99.90;;;;;;5023560;28;20025;-73
2022/09/28 05:00:55;;;;;;;2.75;0.82;;;10.70;99.90;;;;;;5025528;28;20502;-72
2022/09/28 05:03:21;;;;;;;1.58;0.77;;;10.70;99.90;;;;;;5025124;28;20372;-73
2022/09/28 05:05:48;;;;;;;1.65;0.68;;;10.70;99.90;;;;;;5026299;28;20033;-72
2022/09/28 05:08:14;;;;;;;1.30;0.65;;;10.70;99.90;;;;;;5030224;28;20539;-73
2022/09/28 05:10:39;;;;;;;1.98;0.82;;;10.80;99.90;;;;;;5026186;28;20029;-73
2022/09/28 05:13:06;;;;;;;1.88;0.90;;;10.80;99.90;;;;;;5027835;28;20044;-73
2022/09/28 05:15:34;;;;;;;10.10;2.25;;;10.80;99.90;;;;;;5026884;28;20108;-73
2022/09/28 05:17:59;;;;;;;1.92;0.93;;;10.80;99.90;;;;;;5025349;28;20021;-73
2022/09/28 05:20:25;;;;;;;1.23;0.63;;;10.80;99.90;;;;;;5021697;28;20369;-76
2022/09/28 05:22:51;;;;;;;1.38;0.60;;;10.70;99.90;;;;;;5034490;28;20446;-76
2022/09/28 05:25:17;;;;;;;3.33;0.80;;;10.70;99.90;;;;;;5024185;28;20545;-73
2022/09/28 05:27:42;;;;;;;1.98;0.82;;;10.70;99.90;;;;;;5022837;28;20026;-75
2022/09/28 05:30:09;;;;;;;1.95;0.70;;;10.90;99.90;;;;;;5023101;28;20091;-75
2022/09/28 05:32:43;;;;;;;2.42;0.90;;;10.90;99.90;;;;;;5024707;28;20026;-75
2022/09/28 05:35:12;;;;;;;2.20;0.90;;;11.00;99.90;;;;;;5021519;28;20528;-75
2022/09/28 05:37:38;;;;;;;1.90;0.70;;;11.00;99.90;;;;;;5023190;28;20074;-75
2022/09/28 05:40:04;;;;;;;2.63;0.85;;;10.80;99.90;;;;;;5027362;28;20029;-75
2022/09/28 05:42:30;;;;;;;1.67;0.70;;;10.90;99.90;;;;;;5023711;28;20029;-75
2022/09/28 05:44:59;;;;;;;1.85;0.80;;;10.90;99.90;;;;;;5022327;28;20513;-75
2022/09/28 05:47:25;;;;;;;2.20;1.00;;;11.00;99.90;;;;;;5022552;28;20029;-75
2022/09/28 05:49:52;;;;;;;1.15;0.60;;;11.00;99.90;;;;;;5021766;28;20021;-75
2022/09/28 05:52:18;;;;;;;1.73;0.80;;;11.00;99.90;;;;;;5021042;28;20094;-74
2022/09/28 05:54:44;;;;;;;1.58;0.70;;;11.00;99.90;;;;;;5022614;28;20029;-72
2022/09/28 05:57:10;;;;;;;1.77;0.70;;;10.80;99.90;;;;;;5027679;28;20022;-73
2022/09/28 05:59:35;;;;;;;2.22;0.80;;;10.80;99.90;;;;;;5023603;28;20065;-73
2022/09/28 06:02:02;;;;;;;1.25;0.60;;;10.90;99.90;;;;;;5025056;28;20053;-73
2022/09/28 06:04:28;;;;;;;1.95;0.80;;;10.90;99.90;;;;;;5021353;28;20123;-73
2022/09/28 06:06:54;;;;;;;3.33;0.80;;;10.80;99.90;;;;;;5029729;28;20457;-73
2022/09/28 06:09:22;;;;;;;3.22;0.68;;;10.80;99.90;;;;;;5023475;28;20511;-74
2022/09/28 06:11:48;;;;;;;1.85;0.93;;;10.70;99.90;;;;;;5025896;28;20039;-74
2022/09/28 06:14:14;;;;;;;2.63;0.98;;;10.80;99.90;;;;;;5026714;28;20037;-73
2022/09/28 06:16:40;;;;;;;2.55;0.90;;;10.90;99.90;;;;;;5021556;28;20067;-73
2022/09/28 06:19:10;;;;;;;3.38;0.93;;;10.90;99.90;;;;;;5022501;28;20395;-73
2022/09/28 06:21:36;;;;;;;2.40;1.30;;;10.90;99.90;;;;;;5022482;28;20317;-73
2022/09/28 06:24:03;;;;;;;2.25;0.80;;;10.90;99.90;;;;;;5020339;28;20037;-73
2022/09/28 06:26:29;;;;;;;1.75;0.75;;;10.90;99.90;;;;;;5026109;28;20037;-73
2022/09/28 06:28:55;;;;;;;2.95;0.80;;;10.90;99.90;;;;;;5026273;28;20037;-73
2022/09/28 06:31:23;;;;;;;2.78;0.68;;;10.70;99.90;;;;;;5020579;28;20040;-73
2022/09/28 06:33:49;;;;;;;2.15;0.82;;;10.70;99.90;;;;;;5022796;28;20032;-73
2022/09/28 06:36:16;;;;;;;1.67;0.73;;;10.90;99.90;;;;;;5021621;28;20037;-73
2022/09/28 06:38:42;;;;;;;1.75;0.68;;;10.90;99.90;;;;;;5027698;28;20037;-74
2022/09/28 06:41:08;;;;;;;2.90;1.10;;;11.00;99.90;;;;;;5023588;28;20026;-73
2022/09/28 06:43:34;;;;;;;1.63;0.77;;;11.00;99.90;;;;;;5026193;28;20033;-74
2022/09/28 06:46:00;;;;;;;1.75;1.05;;;11.20;99.90;;;;;;5023336;28;20061;-75
2022/09/28 06:48:26;;;;;;;2.33;1.00;;;11.30;99.90;;;;;;5022781;28;20041;-75
2022/09/28 06:50:52;;;;;;;1.60;0.63;;;11.30;99.90;;;;;;5023923;28;20028;-74
2022/09/28 06:53:18;;;;;;;2.17;0.90;;;11.30;99.90;;;;;;5023028;28;20048;-74
2022/09/28 06:55:47;;;;;;;1.65;0.85;;;11.40;99.90;;;;;;5019319;28;20726;-74
2022/09/28 06:58:16;;;;;;;2.80;1.20;;;11.40;99.90;;;;;;5023921;28;20057;-74
2022/09/28 07:00:42;;;;;;;2.28;0.85;;;11.40;99.90;;;;;;5024784;28;20036;-74
2022/09/28 07:03:17;;;;;;;3.08;1.30;;;11.40;99.90;;;;;;5022983;28;20197;-74
2022/09/28 07:05:45;;;;;;;3.33;0.93;;;11.30;99.90;;;;;;5028960;28;20043;-74
2022/09/28 07:08:12;;;;;;;2.03;0.90;;;11.30;99.90;;;;;;5025250;28;20048;-74
2022/09/28 07:10:48;;;;;;;3.70;0.95;;;11.30;99.90;;;;;;5022760;28;20060;-74
2022/09/28 07:13:16;;;;;;;2.78;1.08;;;11.40;99.90;;;;;;5024832;28;20056;-74
2022/09/28 07:15:42;;;;;;;2.70;0.88;;;11.40;99.90;;;;;;5028631;28;20490;-74
2022/09/28 07:18:10;;;;;;;3.35;0.98;;;11.40;99.90;;;;;;5031762;28;20021;-74
2022/09/28 07:20:36;;;;;;;1.67;0.80;;;11.40;99.90;;;;;;5020880;28;20032;-74
2022/09/28 07:23:04;;;;;;;2.15;0.88;;;11.50;99.90;;;;;;5023386;28;20479;-74
2022/09/28 07:25:31;;;;;;;2.17;0.70;;;11.60;99.90;;;;;;5021267;28;20072;-74
2022/09/28 07:28:02;;;;;;;2.92;1.00;;;11.60;99.90;;;;;;5020049;28;20088;-75
2022/09/28 07:30:32;;;;;;;1.65;0.70;;;11.80;99.90;;;;;;5020426;28;20021;-73
2022/09/28 07:32:58;;;;;;;5.70;1.00;;;11.80;99.90;;;;;;5020565;28;20032;-73
2022/09/28 07:35:24;;;;;;;2.85;1.10;;;11.80;99.90;;;;;;5020908;28;20498;-74
2022/09/28 07:38:17;;;;;;;2.40;1.05;;;11.90;99.90;;;;;;5019790;28;20674;-73
2022/09/28 07:41:21;;;;;;;3.35;1.10;;;12.10;99.90;;;;;;5020146;28;20055;-73
2022/09/28 07:43:35;;;;;;;2.45;1.00;;;12.00;99.90;;;;;;5036200;28;20038;-72
2022/09/28 07:46:01;;;;;;;3.42;0.90;;;12.00;99.90;;;;;;5020492;28;20072;-73
2022/09/28 07:48:26;;;;;;;3.53;1.50;;;11.80;99.90;;;;;;5021538;28;20543;-73
2022/09/28 07:50:56;;;;;;;2.90;1.13;;;11.80;99.90;;;;;;5021109;28;20082;-72
2022/09/28 07:53:24;;;;;;;2.70;1.10;;;11.70;99.90;;;;;;5021130;28;20034;-73
2022/09/28 07:56:00;;;;;;;6.22;1.23;;;11.70;99.90;;;;;;5023190;28;20128;-72
2022/09/28 07:58:27;;;;;;;3.03;1.30;;;11.80;99.90;;;;;;5024173;28;20537;-72
2022/09/28 08:00:52;;;;;;;3.85;1.02;;;11.80;99.90;;;;;;5024445;28;20558;-72
2022/09/28 08:03:22;;;;;;;5.47;1.17;;;11.80;99.90;;;;;;5022183;28;20030;-72
2022/09/28 08:05:48;;;;;;;3.65;1.20;;;12.10;99.90;;;;;;5027326;28;20025;-73
2022/09/28 08:08:14;;;;;;;2.83;0.82;;;12.40;99.90;;;;;;5028089;28;20052;-72
2022/09/28 08:10:43;;;;;;;2.75;1.10;;;12.50;99.80;;;;;;5021591;28;20475;-72
2022/09/28 08:13:09;;;;;;;2.13;0.80;;;12.50;99.90;;;;;;5021038;28;20448;-73
2022/09/28 08:15:37;;;;;;;2.40;0.70;;;12.40;99.90;;;;;;5020382;28;20170;-72
2022/09/28 08:18:05;;;;;;;3.42;0.77;;;12.40;99.90;;;;;;5019437;28;20029;-72
2022/09/28 08:23:17;;;;;;;5.13;0.90;;;12.50;99.90;;;;;;5026174;28;20119;-72
2022/09/28 08:25:50;;;;;;;1.98;1.13;;;12.40;99.90;;;;;;5021676;28;20025;-72
2022/09/28 08:28:16;;;;;;;2.40;1.10;;;12.50;99.90;;;;;;5020004;28;20475;-73
2022/09/28 08:30:45;;;;;;;2.03;1.00;;;12.50;99.90;;;;;;5022805;28;20025;-73
2022/09/28 08:33:16;;;;;;;2.38;1.00;;;12.60;99.90;;;;;;5033878;28;20055;-73
2022/09/28 08:35:43;;;;;;;5.70;0.98;;;12.80;99.90;;;;;;5027988;28;20507;-72
2022/09/28 08:38:09;;;;;;;3.05;1.10;;;12.90;99.90;;;;;;5031869;28;20037;-72
2022/09/28 08:41:17;;;;;;;2.75;0.90;;;12.90;99.90;;;;;;5032430;28;20718;-72
2022/09/28 08:44:13;;;;;;;6.95;0.90;;;12.70;99.90;;;;;;5028512;28;20025;-73
2022/09/28 08:46:46;;;;;;;3.30;1.10;;;12.70;99.90;;;;;;5030513;28;20349;-72
2022/09/28 08:49:28;;;;;;;4.28;1.23;;;12.70;99.80;;;;;;5030369;28;20033;-73
2022/09/28 08:52:01;;;;;;;6.07;1.45;;;12.60;99.80;;;;;;5028414;28;20106;-72
2022/09/28 08:54:45;;;;;;;2.47;0.80;;;12.50;99.60;;;;;;5033923;28;20471;-72
2022/09/28 08:57:17;;;;;;;1.60;0.68;;;12.40;99.40;;;;;;5031932;28;20045;-73
2022/09/28 08:59:54;;;;;;;3.95;1.25;;;12.50;99.60;;;;;;5026420;28;21258;-72
2022/09/28 09:02:28;;;;;;;2.05;0.90;;;12.60;99.90;;;;;;5029097;28;20120;-72
2022/09/28 09:04:55;;;;;;;2.58;1.13;;;12.50;99.90;;;;;;5025475;28;20032;-72
2022/09/28 09:08:16;;;;;;;2.05;1.00;;;12.50;99.90;;;;;;5024263;28;20033;-72
2022/09/28 09:11:30;;;;;;;1.85;0.90;;;12.60;99.90;;;;;;5027937;28;20090;-73
2022/09/28 09:14:20;;;;;;;4.85;0.80;;;12.60;99.90;;;;;;5021141;28;20045;-73
2022/09/28 09:17:06;;;;;;;1.67;0.82;;;12.50;99.90;;;;;;5022784;28;20037;-73
2022/09/28 09:19:45;;;;;;;2.63;1.27;;;12.50;99.90;;;;;;5022712;28;20414;-73
2022/09/28 09:22:28;;;;;;;2.58;1.02;;;12.50;99.90;;;;;;5022775;28;20041;-72
2022/09/28 09:25:17;;;;;;;5.93;1.30;;;12.50;99.90;;;;;;5022725;28;20080;-73
2022/09/28 09:27:52;;;;;;;3.47;1.08;;;12.60;99.90;;;;;;5022248;28;20033;-72
2022/09/28 09:30:21;;;;;;;3.95;1.15;;;12.60;99.90;;;;;;5020978;28;20495;-73
2022/09/28 09:33:09;;;;;;;3.85;1.13;;;12.70;99.90;;;;;;5022532;28;20034;-72
2022/09/28 09:35:53;;;;;;;5.47;1.05;;;12.80;99.30;;;;;;5022008;28;20045;-72
2022/09/28 09:38:45;;;;;;;2.53;1.05;;;12.70;99.60;;;;;;5021981;28;20034;-73
2022/09/28 09:41:41;;;;;;;3.15;1.20;;;12.80;99.30;;;;;;5022750;28;20046;-72
2022/09/28 09:44:27;;;;;;;2.53;0.70;;;12.80;99.80;;;;;;5021452;28;20383;-73
2022/09/28 09:47:06;;;;;;;3.88;1.17;;;13.10;99.70;;;;;;5029624;28;20379;-72
2022/09/28 09:49:35;;;;;;;1.80;0.80;;;13.10;98.70;;;;;;5023636;28;20026;-73
2022/09/28 09:52:26;;;;;;;2.58;1.50;;;13.10;99.00;;;;;;5021220;28;20052;-73
2022/09/28 09:55:02;;;;;;;1.85;0.77;;;13.20;98.80;;;;;;5020769;28;20128;-73
2022/09/28 09:57:40;;;;;;;2.60;1.00;;;13.30;99.60;;;;;;5029429;28;20136;-73
2022/09/28 10:00:14;;;;;;;4.97;1.40;;;13.50;99.50;;;;;;5030961;28;20418;-74
2022/09/28 10:02:42;;;;;;;3.03;1.27;;;13.50;98.70;;;;;;5045663;28;20033;-73
2022/09/28 10:05:10;;;;;;;1.67;1.00;;;13.60;99.80;;;;;;5034119;28;20021;-73
2022/09/28 10:07:46;;;;;;;2.35;0.82;;;13.70;99.70;;;;;;5029401;28;20030;-73
2022/09/28 10:10:17;;;;;;;2.25;1.20;;;13.80;98.80;;;;;;5028296;28;20090;-74
2022/09/28 10:12:43;;;;;;;2.05;0.93;;;13.80;98.90;;;;;;5024786;28;20514;-72
2022/09/28 10:15:17;;;;;;;2.47;0.85;;;13.70;98.20;;;;;;5022578;28;20029;-73
2022/09/28 10:17:43;;;;;;;1.95;0.80;;;13.80;99.10;;;;;;5027886;28;20091;-73
2022/09/28 10:20:14;;;;;;;3.30;1.00;;;13.90;98.50;;;;;;5022008;28;20044;-73
2022/09/28 10:22:41;;;;;;;5.90;1.10;;;13.90;98.00;;;;;;5023410;28;20456;-73
2022/09/28 10:25:08;;;;;;;3.63;1.08;;;13.90;98.40;;;;;;5023024;28;20938;-73
2022/09/28 10:27:37;;;;;;;3.60;1.10;;;13.80;98.20;;;;;;5021312;28;20018;-73
2022/09/28 10:30:09;;;;;;;4.53;0.75;;;13.90;98.80;;;;;;5020606;28;20037;-73
2022/09/28 10:32:43;;;;;;;3.65;1.35;;;13.90;98.80;;;;;;5019368;28;20035;-74
2022/09/28 10:35:18;;;;;;;5.57;1.05;;;14.00;98.40;;;;;;5023440;28;20091;-73
2022/09/28 10:37:58;;;;;;;1.30;0.77;;;14.10;97.90;;;;;;5022044;28;20041;-73
2022/09/28 10:40:33;;;;;;;4.32;1.77;;;14.30;97.70;;;;;;5021522;28;20104;-73
2022/09/28 10:43:16;;;;;;;2.20;1.20;;;14.60;98.20;;;;;;5028671;28;20024;-74
2022/09/28 10:45:43;;;;;;;6.93;1.25;;;14.50;97.50;;;;;;5028750;28;20079;-73
2022/09/28 10:48:22;;;;;;;2.38;0.85;;;14.50;97.80;;;;;;5020613;28;20037;-73
2022/09/28 10:51:00;;;;;;;1.45;0.90;;;14.60;97.40;;;;;;5020070;28;20021;-73
2022/09/28 10:53:26;;;;;;;2.80;1.08;;;14.60;97.60;;;;;;5020455;28;20025;-73
2022/09/28 10:56:19;;;;;;;2.92;1.23;;;14.50;97.50;;;;;;5020710;28;20506;-73
2022/09/28 10:58:45;;;;;;;3.72;1.02;;;14.80;98.20;;;;;;5021451;28;20171;-73
2022/09/28 11:01:19;;;;;;;2.97;1.10;;;14.70;97.50;;;;;;5021300;28;20623;-73
2022/09/28 11:03:56;;;;;;;2.08;0.68;;;14.80;97.40;;;;;;5025232;28;20350;-73
2022/09/28 11:06:35;;;;;;;4.22;1.08;;;14.80;97.30;;;;;;5023771;28;20033;-73
2022/09/28 11:09:04;;;;;;;4.03;1.15;;;14.90;97.60;;;;;;5019412;28;20060;-73
2022/09/28 11:11:38;;;;;;;3.50;1.15;;;14.90;97.30;;;;;;5023486;28;20033;-74
2022/09/28 11:14:19;;;;;;;4.45;1.20;;;14.60;96.80;;;;;;5021573;28;20412;-73
2022/09/28 11:16:45;;;;;;;4.47;1.10;;;14.60;96.90;;;;;;5021576;28;20032;-73
2022/09/28 11:19:27;;;;;;;3.15;1.40;;;14.70;97.00;;;;;;5018572;28;20037;-73
2022/09/28 11:21:52;;;;;;;4.35;1.40;;;14.60;96.90;;;;;;5029554;28;20478;-73
2022/09/28 11:24:21;;;;;;;3.63;1.30;;;14.60;97.70;;;;;;5027375;28;20033;-73
2022/09/28 11:26:53;;;;;;;2.55;0.90;;;14.70;96.90;;;;;;5024430;28;20112;-73
2022/09/28 11:29:33;;;;;;;2.13;0.68;;;14.90;97.40;;;;;;5022610;28;20930;-73
2022/09/28 11:32:04;;;;;;;2.65;1.15;;;15.00;97.00;;;;;;5023600;28;20021;-73
2022/09/28 11:34:35;;;;;;;3.67;1.20;;;15.00;97.30;;;;;;5024849;28;20644;-73
2022/09/28 11:37:17;;;;;;;2.10;0.95;;;15.10;96.70;;;;;;5024096;28;20060;-73
2022/09/28 11:40:04;;;;;;;2.47;1.20;;;15.20;97.20;;;;;;5024426;28;20025;-73
2022/09/28 11:42:51;;;;;;;3.05;1.35;;;15.30;96.60;;;;;;5023848;28;20056;-73
2022/09/28 11:45:25;;;;;;;2.95;1.10;;;15.40;96.40;;;;;;5024776;28;20526;-73
2022/09/28 11:47:56;;;;;;;;;;;15.50;96.80;;;;;;5021280;28;20064;-73
2022/09/28 11:50:28;;;;;;;1.63;1.00;;;15.30;96.90;;;;;;5020377;28;19913;-73
2022/09/28 11:53:09;;;;;;;1.60;0.90;;;15.40;97.00;;;;;;5021868;28;20025;-73
2022/09/28 11:55:45;;;;;;;2.15;1.05;;;15.20;96.70;;;;;;5025171;28;20037;-73
2022/09/28 11:58:16;;;;;;;2.67;0.88;;;15.10;96.30;;;;;;5028568;28;20040;-73
2022/09/28 12:00:51;;;;;;;4.43;1.42;;;15.20;96.70;;;;;;5031782;28;20974;-73
2022/09/28 12:03:45;;;;;;;3.20;1.08;;;15.20;96.30;;;;;;5027916;28;20029;-73
2022/09/28 12:06:20;;;;;;;4.63;1.27;;;15.30;96.40;;;;;;5030102;28;20116;-73
2022/09/28 12:08:55;;;;;;;2.45;1.00;;;15.30;96.40;;;;;;5032179;28;20757;-73
2022/09/28 12:11:26;;;;;;;2.28;0.80;;;15.40;96.50;;;;;;5029897;28;20029;-72
2022/09/28 12:13:56;;;;;;;2.45;1.20;;;15.80;96.90;;;;;;5031078;28;20064;-73
2022/09/28 12:16:42;;;;;;;4.35;0.90;;;16.00;97.30;;;;;;5033907;28;20065;-74
2022/09/28 12:19:19;;;;;;;5.78;1.48;;;16.10;96.40;;;;;;5028474;28;20030;-74
2022/09/28 12:21:51;;;;;;;2.30;1.10;;;16.00;96.50;;;;;;5023852;28;20682;-74
2022/09/28 12:24:22;;;;;;;2.08;1.02;;;15.80;96.20;;;;;;5027747;28;20025;-74
2022/09/28 12:26:56;;;;;;;2.08;1.00;;;15.80;96.70;;;;;;5025486;28;20025;-74
2022/09/28 12:29:42;;;;;;;3.60;1.20;;;15.90;96.30;;;;;;5027142;28;20076;-74
2022/09/28 12:32:23;;;;;;;2.58;0.88;;;15.90;96.70;;;;;;5024799;28;20029;-74
2022/09/28 12:34:48;;;;;;;3.97;1.27;;;15.70;96.60;;;;;;5024522;28;20044;-74
2022/09/28 12:37:33;;;;;;;6.65;1.63;;;15.70;96.70;;;;;;5026305;28;20387;-74
2022/09/28 12:40:21;;;;;;;2.33;1.00;;;15.80;96.60;;;;;;5028787;28;20116;-74
2022/09/28 12:43:53;;;;;;;4.13;1.40;;;15.90;96.60;;;;;;5029398;28;20056;-74
2022/09/28 12:46:26;;;;;;;3.92;1.35;;;15.90;96.60;;;;;;5030717;28;20184;-75
2022/09/28 12:49:12;;;;;;;3.92;1.17;;;15.80;96.90;;;;;;5032001;28;20033;-75
2022/09/28 12:51:58;;;;;;;3.13;1.35;;;15.80;97.20;;;;;;5026554;28;20022;-74
2022/09/28 12:54:49;;;;;;;4.65;1.20;;;15.80;97.00;;;;;;5022542;28;20099;-74
2022/09/28 12:57:33;;;;;;;3.40;1.10;;;15.80;97.50;;;;;;5027003;28;20025;-74
2022/09/28 13:00:03;;;;;;;2.70;1.20;;;15.90;97.50;;;;;;5026139;28;20679;-75
2022/09/28 13:02:48;;;;;;;5.03;1.20;;;15.70;96.10;;;;;;5025385;28;20034;-74
2022/09/28 13:05:16;;;;;;;6.97;1.00;;;15.70;96.40;;;;;;5025997;28;20461;-74
2022/09/28 13:08:11;;;;;;;3.30;1.27;;;15.80;96.70;;;;;;5032751;28;20531;-75
2022/09/28 13:11:06;;;;;;;6.47;1.75;;;16.10;97.10;;;;;;5038006;28;20073;-74
2022/09/28 13:13:34;;;;;;;3.40;1.30;;;16.30;97.20;;;;;;5041409;28;20042;-75
2022/09/28 13:16:16;;;;;;;4.07;1.20;;;16.30;96.70;;;;;;5031080;28;20076;-75
2022/09/28 13:19:23;;;;;;;2.47;1.00;;;16.40;96.90;;;;;;5032234;28;20018;-76
2022/09/28 13:21:54;;;;;;;5.00;1.48;;;16.50;96.80;;;;;;5032917;28;20051;-75
2022/09/28 13:24:32;;;;;;;3.97;1.65;;;16.50;96.30;;;;;;5029556;28;20045;-75